sensor_id;sensor_type;location;lat;lon;timestamp;pressure;altitude;pressure_sealevel;temperature;humidity
55916;BME280;41826;53.246;-6.670;2023-03-12T00:02:11;100116.28;;;9.09;100.00
55916;BME280;41826;53.246;-6.670;2023-03-12T00:04:37;100118.69;;;8.93;100.00
55916;BME280;41826;53.246;-6.670;2023-03-12T00:07:03;100130.09;;;9.02;100.00
55916;BME280;41826;53.246;-6.670;2023-03-12T00:09:33;100128.22;;;8.94;100.00
55916;BME280;41826;53.246;-6.670;2023-03-12T00:11:58;100132.03;;;9.00;100.00
55916;BME280;41826;53.246;-6.670;2023-03-12T00:14:23;100134.97;;;8.97;100.00
55916;BME280;41826;53.246;-6.670;2023-03-12T00:16:49;100135.47;;;9.00;100.00
55916;BME280;41826;53.246;-6.670;2023-03-12T00:19:14;100147.88;;;8.98;100.00
55916;BME280;41826;53.246;-6.670;2023-03-12T00:21:40;100148.81;;;8.79;100.00
55916;BME280;41826;53.246;-6.670;2023-03-12T00:24:06;100152.41;;;8.78;100.00
55916;BME280;41826;53.246;-6.670;2023-03-12T00:26:32;100167.09;;;8.61;100.00
55916;BME280;41826;53.246;-6.670;2023-03-12T00:28:57;100155.63;;;8.62;100.00
55916;BME280;41826;53.246;-6.670;2023-03-12T00:31:27;100156.75;;;8.60;100.00
55916;BME280;41826;53.246;-6.670;2023-03-12T00:33:54;100154.47;;;8.47;100.00
55916;BME280;41826;53.246;-6.670;2023-03-12T00:36:22;100162.00;;;8.60;100.00
55916;BME280;41826;53.246;-6.670;2023-03-12T00:38:49;100170.66;;;8.60;100.00
55916;BME280;41826;53.246;-6.670;2023-03-12T00:41:15;100165.00;;;8.65;100.00
55916;BME280;41826;53.246;-6.670;2023-03-12T00:43:40;100152.38;;;8.51;100.00
55916;BME280;41826;53.246;-6.670;2023-03-12T00:46:06;100141.88;;;8.60;100.00
55916;BME280;41826;53.246;-6.670;2023-03-12T00:48:31;100143.84;;;8.58;100.00
55916;BME280;41826;53.246;-6.670;2023-03-12T00:50:57;100135.03;;;8.50;100.00
55916;BME280;41826;53.246;-6.670;2023-03-12T00:53:22;100135.47;;;8.45;100.00
55916;BME280;41826;53.246;-6.670;2023-03-12T00:55:48;100122.47;;;8.53;100.00
55916;BME280;41826;53.246;-6.670;2023-03-12T00:58:13;100125.06;;;8.63;100.00
55916;BME280;41826;53.246;-6.670;2023-03-12T01:00:39;100136.38;;;8.63;100.00
55916;BME280;41826;53.246;-6.670;2023-03-12T01:03:04;100136.41;;;8.54;100.00
55916;BME280;41826;53.246;-6.670;2023-03-12T01:05:29;100144.50;;;8.60;100.00
55916;BME280;41826;53.246;-6.670;2023-03-12T01:07:56;100156.22;;;8.56;100.00
55916;BME280;41826;53.246;-6.670;2023-03-12T01:10:22;100170.44;;;8.44;100.00
55916;BME280;41826;53.246;-6.670;2023-03-12T01:12:47;100162.59;;;8.44;100.00
55916;BME280;41826;53.246;-6.670;2023-03-12T01:15:15;100158.19;;;8.35;100.00
55916;BME280;41826;53.246;-6.670;2023-03-12T01:17:40;100154.09;;;8.22;100.00
55916;BME280;41826;53.246;-6.670;2023-03-12T01:20:07;100150.91;;;8.29;100.00
55916;BME280;41826;53.246;-6.670;2023-03-12T01:22:33;100158.91;;;8.17;100.00
55916;BME280;41826;53.246;-6.670;2023-03-12T01:24:59;100179.09;;;8.35;100.00
55916;BME280;41826;53.246;-6.670;2023-03-12T01:27:24;100187.06;;;8.53;100.00
55916;BME280;41826;53.246;-6.670;2023-03-12T01:29:50;100188.47;;;8.47;100.00
55916;BME280;41826;53.246;-6.670;2023-03-12T01:32:15;100189.84;;;8.51;100.00
55916;BME280;41826;53.246;-6.670;2023-03-12T01:34:43;100188.63;;;8.36;100.00
55916;BME280;41826;53.246;-6.670;2023-03-12T01:37:09;100176.38;;;8.46;100.00
55916;BME280;41826;53.246;-6.670;2023-03-12T01:39:35;100165.91;;;8.36;100.00
55916;BME280;41826;53.246;-6.670;2023-03-12T01:42:00;100162.31;;;8.28;100.00
55916;BME280;41826;53.246;-6.670;2023-03-12T01:44:26;100169.47;;;8.35;100.00
55916;BME280;41826;53.246;-6.670;2023-03-12T01:46:51;100170.31;;;8.36;100.00
55916;BME280;41826;53.246;-6.670;2023-03-12T01:49:29;100177.75;;;8.31;100.00
55916;BME280;41826;53.246;-6.670;2023-03-12T01:52:01;100186.56;;;8.39;100.00
55916;BME280;41826;53.246;-6.670;2023-03-12T01:54:37;100188.22;;;8.31;100.00
55916;BME280;41826;53.246;-6.670;2023-03-12T01:57:06;100197.03;;;8.39;100.00
55916;BME280;41826;53.246;-6.670;2023-03-12T01:59:49;100193.56;;;8.39;100.00
55916;BME280;41826;53.246;-6.670;2023-03-12T02:02:16;100199.75;;;8.38;100.00
55916;BME280;41826;53.246;-6.670;2023-03-12T02:04:43;100203.88;;;8.40;100.00
55916;BME280;41826;53.246;-6.670;2023-03-12T02:07:13;100215.03;;;8.33;100.00
55916;BME280;41826;53.246;-6.670;2023-03-12T02:09:42;100214.78;;;8.16;100.00
55916;BME280;41826;53.246;-6.670;2023-03-12T02:12:09;100218.50;;;8.33;100.00
55916;BME280;41826;53.246;-6.670;2023-03-12T02:14:35;100227.69;;;8.28;100.00
55916;BME280;41826;53.246;-6.670;2023-03-12T02:17:01;100229.50;;;8.27;100.00
55916;BME280;41826;53.246;-6.670;2023-03-12T02:19:52;100229.50;;;8.37;100.00
55916;BME280;41826;53.246;-6.670;2023-03-12T02:22:22;100223.56;;;8.35;100.00
55916;BME280;41826;53.246;-6.670;2023-03-12T02:25:02;100215.59;;;8.27;100.00
55916;BME280;41826;53.246;-6.670;2023-03-12T02:27:32;100221.75;;;8.35;100.00
55916;BME280;41826;53.246;-6.670;2023-03-12T02:30:02;100221.38;;;8.30;100.00
55916;BME280;41826;53.246;-6.670;2023-03-12T02:32:33;100221.63;;;8.37;100.00
55916;BME280;41826;53.246;-6.670;2023-03-12T02:35:00;100223.88;;;8.22;100.00
55916;BME280;41826;53.246;-6.670;2023-03-12T02:37:26;100214.78;;;8.26;100.00
55916;BME280;41826;53.246;-6.670;2023-03-12T02:40:00;100211.19;;;8.17;100.00
55916;BME280;41826;53.246;-6.670;2023-03-12T02:42:27;100201.16;;;8.22;100.00
55916;BME280;41826;53.246;-6.670;2023-03-12T02:44:53;100202.66;;;8.25;100.00
55916;BME280;41826;53.246;-6.670;2023-03-12T02:47:18;100220.13;;;8.24;100.00
55916;BME280;41826;53.246;-6.670;2023-03-12T02:49:44;100220.53;;;8.30;100.00
55916;BME280;41826;53.246;-6.670;2023-03-12T02:52:11;100194.28;;;8.21;100.00
55916;BME280;41826;53.246;-6.670;2023-03-12T02:54:36;100199.22;;;8.15;100.00
55916;BME280;41826;53.246;-6.670;2023-03-12T02:57:02;100202.81;;;8.23;100.00
55916;BME280;41826;53.246;-6.670;2023-03-12T02:59:27;100205.97;;;8.17;100.00
55916;BME280;41826;53.246;-6.670;2023-03-12T03:01:58;100210.50;;;8.25;100.00
55916;BME280;41826;53.246;-6.670;2023-03-12T03:04:24;100218.50;;;8.14;100.00
55916;BME280;41826;53.246;-6.670;2023-03-12T03:06:50;100221.53;;;8.19;100.00
55916;BME280;41826;53.246;-6.670;2023-03-12T03:09:15;100222.78;;;8.05;100.00
55916;BME280;41826;53.246;-6.670;2023-03-12T03:11:41;100222.34;;;8.10;100.00
55916;BME280;41826;53.246;-6.670;2023-03-12T03:14:07;100214.50;;;8.19;100.00
55916;BME280;41826;53.246;-6.670;2023-03-12T03:16:32;100227.16;;;8.24;100.00
55916;BME280;41826;53.246;-6.670;2023-03-12T03:18:58;100230.75;;;8.13;100.00
55916;BME280;41826;53.246;-6.670;2023-03-12T03:21:24;100227.59;;;8.00;100.00
55916;BME280;41826;53.246;-6.670;2023-03-12T03:23:50;100223.06;;;8.02;100.00
55916;BME280;41826;53.246;-6.670;2023-03-12T03:26:18;100213.56;;;8.01;100.00
55916;BME280;41826;53.246;-6.670;2023-03-12T03:28:44;100205.19;;;7.88;100.00
55916;BME280;41826;53.246;-6.670;2023-03-12T03:31:09;100202.00;;;7.84;100.00
55916;BME280;41826;53.246;-6.670;2023-03-12T03:33:36;100185.38;;;7.75;100.00
55916;BME280;41826;53.246;-6.670;2023-03-12T03:36:03;100181.81;;;7.76;100.00
55916;BME280;41826;53.246;-6.670;2023-03-12T03:38:30;100175.34;;;7.71;100.00
55916;BME280;41826;53.246;-6.670;2023-03-12T03:40:56;100181.38;;;7.71;100.00
55916;BME280;41826;53.246;-6.670;2023-03-12T03:43:21;100173.69;;;7.60;100.00
55916;BME280;41826;53.246;-6.670;2023-03-12T03:45:47;100163.66;;;7.65;100.00
55916;BME280;41826;53.246;-6.670;2023-03-12T03:48:13;100165.19;;;7.68;100.00
55916;BME280;41826;53.246;-6.670;2023-03-12T03:50:40;100157.63;;;7.65;100.00
55916;BME280;41826;53.246;-6.670;2023-03-12T03:53:08;100156.38;;;7.59;100.00
55916;BME280;41826;53.246;-6.670;2023-03-12T03:55:37;100149.91;;;7.73;100.00
55916;BME280;41826;53.246;-6.670;2023-03-12T03:58:03;100149.75;;;7.74;100.00
55916;BME280;41826;53.246;-6.670;2023-03-12T04:00:29;100153.91;;;7.67;100.00
55916;BME280;41826;53.246;-6.670;2023-03-12T04:02:54;100150.44;;;7.76;100.00
55916;BME280;41826;53.246;-6.670;2023-03-12T04:05:20;100152.13;;;7.77;100.00
55916;BME280;41826;53.246;-6.670;2023-03-12T04:07:46;100146.19;;;7.75;100.00
55916;BME280;41826;53.246;-6.670;2023-03-12T04:10:12;100144.41;;;7.76;100.00
55916;BME280;41826;53.246;-6.670;2023-03-12T04:12:38;100144.00;;;7.80;100.00
55916;BME280;41826;53.246;-6.670;2023-03-12T04:15:04;100165.03;;;7.79;100.00
55916;BME280;41826;53.246;-6.670;2023-03-12T04:17:30;100170.53;;;7.76;100.00
55916;BME280;41826;53.246;-6.670;2023-03-12T04:19:55;100175.06;;;7.84;100.00
55916;BME280;41826;53.246;-6.670;2023-03-12T04:22:21;100177.81;;;7.82;100.00
55916;BME280;41826;53.246;-6.670;2023-03-12T04:24:46;100154.72;;;7.77;100.00
55916;BME280;41826;53.246;-6.670;2023-03-12T04:27:12;100149.75;;;7.74;100.00
55916;BME280;41826;53.246;-6.670;2023-03-12T04:29:37;100152.66;;;7.71;100.00
55916;BME280;41826;53.246;-6.670;2023-03-12T04:32:06;100138.19;;;7.77;100.00
55916;BME280;41826;53.246;-6.670;2023-03-12T04:34:31;100156.91;;;7.82;100.00
55916;BME280;41826;53.246;-6.670;2023-03-12T04:36:57;100165.16;;;7.87;100.00
55916;BME280;41826;53.246;-6.670;2023-03-12T04:39:22;100167.63;;;7.79;100.00
55916;BME280;41826;53.246;-6.670;2023-03-12T04:41:48;100173.69;;;7.79;100.00
55916;BME280;41826;53.246;-6.670;2023-03-12T04:44:13;100190.34;;;7.88;100.00
55916;BME280;41826;53.246;-6.670;2023-03-12T04:46:40;100200.66;;;7.80;100.00
55916;BME280;41826;53.246;-6.670;2023-03-12T04:49:06;100193.78;;;7.79;100.00
55916;BME280;41826;53.246;-6.670;2023-03-12T04:51:31;100191.84;;;7.71;100.00
55916;BME280;41826;53.246;-6.670;2023-03-12T04:53:57;100185.50;;;7.74;100.00
55916;BME280;41826;53.246;-6.670;2023-03-12T04:56:23;100176.31;;;7.70;100.00
55916;BME280;41826;53.246;-6.670;2023-03-12T04:58:48;100172.84;;;7.69;100.00
55916;BME280;41826;53.246;-6.670;2023-03-12T05:01:26;100157.88;;;7.71;100.00
55916;BME280;41826;53.246;-6.670;2023-03-12T05:03:52;100141.25;;;7.72;100.00
55916;BME280;41826;53.246;-6.670;2023-03-12T05:06:18;100134.09;;;7.74;100.00
55916;BME280;41826;53.246;-6.670;2023-03-12T05:08:44;100144.56;;;7.65;100.00
55916;BME280;41826;53.246;-6.670;2023-03-12T05:11:09;100132.72;;;7.70;100.00
55916;BME280;41826;53.246;-6.670;2023-03-12T05:13:34;100137.78;;;7.72;100.00
55916;BME280;41826;53.246;-6.670;2023-03-12T05:16:00;100151.13;;;7.78;100.00
55916;BME280;41826;53.246;-6.670;2023-03-12T05:18:25;100162.97;;;7.82;100.00
55916;BME280;41826;53.246;-6.670;2023-03-12T05:21:01;100171.06;;;7.79;100.00
55916;BME280;41826;53.246;-6.670;2023-03-12T05:23:27;100155.25;;;7.81;100.00
55916;BME280;41826;53.246;-6.670;2023-03-12T05:25:53;100151.84;;;7.80;100.00
55916;BME280;41826;53.246;-6.670;2023-03-12T05:28:18;100160.38;;;7.82;100.00
55916;BME280;41826;53.246;-6.670;2023-03-12T05:30:44;100163.91;;;7.72;100.00
55916;BME280;41826;53.246;-6.670;2023-03-12T05:33:10;100161.88;;;7.85;100.00
55916;BME280;41826;53.246;-6.670;2023-03-12T05:35:36;100150.31;;;7.78;100.00
55916;BME280;41826;53.246;-6.670;2023-03-12T05:38:01;100146.72;;;7.69;100.00
55916;BME280;41826;53.246;-6.670;2023-03-12T05:40:27;100129.28;;;7.70;100.00
55916;BME280;41826;53.246;-6.670;2023-03-12T05:42:52;100136.16;;;7.71;100.00
55916;BME280;41826;53.246;-6.670;2023-03-12T05:45:18;100138.91;;;7.69;100.00
55916;BME280;41826;53.246;-6.670;2023-03-12T05:47:44;100133.53;;;7.71;100.00
55916;BME280;41826;53.246;-6.670;2023-03-12T05:50:10;100132.16;;;7.86;100.00
55916;BME280;41826;53.246;-6.670;2023-03-12T05:52:36;100126.09;;;7.86;100.00
55916;BME280;41826;53.246;-6.670;2023-03-12T05:55:01;100146.19;;;7.85;100.00
55916;BME280;41826;53.246;-6.670;2023-03-12T05:57:27;100140.53;;;7.90;100.00
55916;BME280;41826;53.246;-6.670;2023-03-12T05:59:52;100125.28;;;7.85;100.00
55916;BME280;41826;53.246;-6.670;2023-03-12T06:02:18;100126.50;;;7.91;100.00
55916;BME280;41826;53.246;-6.670;2023-03-12T06:04:44;100136.16;;;7.90;100.00
55916;BME280;41826;53.246;-6.670;2023-03-12T06:07:09;100163.50;;;7.86;100.00
55916;BME280;41826;53.246;-6.670;2023-03-12T06:09:35;100163.63;;;7.85;100.00
55916;BME280;41826;53.246;-6.670;2023-03-12T06:12:00;100164.34;;;7.77;100.00
55916;BME280;41826;53.246;-6.670;2023-03-12T06:14:26;100158.56;;;7.73;100.00
55916;BME280;41826;53.246;-6.670;2023-03-12T06:16:51;100169.84;;;7.74;100.00
55916;BME280;41826;53.246;-6.670;2023-03-12T06:19:17;100165.88;;;7.70;100.00
55916;BME280;41826;53.246;-6.670;2023-03-12T06:21:43;100166.69;;;7.60;100.00
55916;BME280;41826;53.246;-6.670;2023-03-12T06:24:08;100167.38;;;7.53;100.00
55916;BME280;41826;53.246;-6.670;2023-03-12T06:26:34;100177.53;;;7.46;100.00
55916;BME280;41826;53.246;-6.670;2023-03-12T06:28:59;100171.59;;;7.44;100.00
55916;BME280;41826;53.246;-6.670;2023-03-12T06:31:25;100172.47;;;7.45;100.00
55916;BME280;41826;53.246;-6.670;2023-03-12T06:33:51;100163.66;;;7.46;100.00
55916;BME280;41826;53.246;-6.670;2023-03-12T06:36:19;100164.06;;;7.51;100.00
55916;BME280;41826;53.246;-6.670;2023-03-12T06:38:47;100148.97;;;7.45;100.00
55916;BME280;41826;53.246;-6.670;2023-03-12T06:41:15;100155.25;;;7.52;100.00
55916;BME280;41826;53.246;-6.670;2023-03-12T06:43:42;100166.13;;;7.47;100.00
55916;BME280;41826;53.246;-6.670;2023-03-12T06:46:11;100173.97;;;7.47;100.00
55916;BME280;41826;53.246;-6.670;2023-03-12T06:48:37;100179.84;;;7.30;100.00
55916;BME280;41826;53.246;-6.670;2023-03-12T06:51:06;100159.78;;;7.30;100.00
55916;BME280;41826;53.246;-6.670;2023-03-12T06:53:31;100151.97;;;7.30;100.00
55916;BME280;41826;53.246;-6.670;2023-03-12T06:55:57;100142.34;;;7.31;100.00
55916;BME280;41826;53.246;-6.670;2023-03-12T06:58:22;100148.13;;;7.34;100.00
55916;BME280;41826;53.246;-6.670;2023-03-12T07:00:49;100157.19;;;7.30;100.00
55916;BME280;41826;53.246;-6.670;2023-03-12T07:03:15;100134.09;;;7.26;100.00
55916;BME280;41826;53.246;-6.670;2023-03-12T07:05:48;100118.28;;;7.27;100.00
55916;BME280;41826;53.246;-6.670;2023-03-12T07:08:14;100114.00;;;7.26;100.00
55916;BME280;41826;53.246;-6.670;2023-03-12T07:10:39;100105.09;;;7.29;100.00
55916;BME280;41826;53.246;-6.670;2023-03-12T07:13:06;100094.81;;;7.37;100.00
55916;BME280;41826;53.246;-6.670;2023-03-12T07:15:32;100092.88;;;7.29;100.00
55916;BME280;41826;53.246;-6.670;2023-03-12T07:18:07;100089.00;;;7.33;100.00
55916;BME280;41826;53.246;-6.670;2023-03-12T07:20:41;100096.03;;;7.33;100.00
55916;BME280;41826;53.246;-6.670;2023-03-12T07:23:08;100096.16;;;7.31;100.00
55916;BME280;41826;53.246;-6.670;2023-03-12T07:25:38;100089.16;;;7.22;100.00
55916;BME280;41826;53.246;-6.670;2023-03-12T07:28:04;100080.50;;;7.31;100.00
55916;BME280;41826;53.246;-6.670;2023-03-12T07:30:30;100081.47;;;7.30;100.00
55916;BME280;41826;53.246;-6.670;2023-03-12T07:33:06;100084.06;;;7.30;100.00
55916;BME280;41826;53.246;-6.670;2023-03-12T07:35:32;100096.44;;;7.28;100.00
55916;BME280;41826;53.246;-6.670;2023-03-12T07:37:59;100093.94;;;7.36;100.00
55916;BME280;41826;53.246;-6.670;2023-03-12T07:40:24;100082.97;;;7.33;100.00
55916;BME280;41826;53.246;-6.670;2023-03-12T07:42:50;100079.53;;;7.32;100.00
55916;BME280;41826;53.246;-6.670;2023-03-12T07:45:16;100076.66;;;7.35;100.00
55916;BME280;41826;53.246;-6.670;2023-03-12T07:47:42;100076.94;;;7.32;100.00
55916;BME280;41826;53.246;-6.670;2023-03-12T07:50:08;100084.63;;;7.44;100.00
55916;BME280;41826;53.246;-6.670;2023-03-12T07:52:33;100074.88;;;7.46;100.00
55916;BME280;41826;53.246;-6.670;2023-03-12T07:54:59;100086.00;;;7.48;100.00
55916;BME280;41826;53.246;-6.670;2023-03-12T07:57:24;100086.53;;;7.42;100.00
55916;BME280;41826;53.246;-6.670;2023-03-12T07:59:50;100091.22;;;7.48;100.00
55916;BME280;41826;53.246;-6.670;2023-03-12T08:02:16;100087.63;;;7.49;100.00
55916;BME280;41826;53.246;-6.670;2023-03-12T08:04:41;100080.22;;;7.54;100.00
55916;BME280;41826;53.246;-6.670;2023-03-12T08:07:07;100073.88;;;7.56;100.00
55916;BME280;41826;53.246;-6.670;2023-03-12T08:09:32;100071.44;;;7.55;100.00
55916;BME280;41826;53.246;-6.670;2023-03-12T08:11:58;100077.19;;;7.58;100.00
55916;BME280;41826;53.246;-6.670;2023-03-12T08:14:24;100084.47;;;7.65;100.00
55916;BME280;41826;53.246;-6.670;2023-03-12T08:16:49;100094.94;;;7.65;100.00
55916;BME280;41826;53.246;-6.670;2023-03-12T08:19:15;100092.84;;;7.68;100.00
55916;BME280;41826;53.246;-6.670;2023-03-12T08:21:41;100101.78;;;7.75;100.00
55916;BME280;41826;53.246;-6.670;2023-03-12T08:24:06;100101.09;;;7.73;100.00
55916;BME280;41826;53.246;-6.670;2023-03-12T08:26:32;100107.69;;;7.77;100.00
55916;BME280;41826;53.246;-6.670;2023-03-12T08:28:57;100103.00;;;7.81;100.00
55916;BME280;41826;53.246;-6.670;2023-03-12T08:31:25;100094.34;;;7.80;100.00
55916;BME280;41826;53.246;-6.670;2023-03-12T08:33:51;100090.63;;;7.83;100.00
55916;BME280;41826;53.246;-6.670;2023-03-12T08:36:16;100085.13;;;7.86;100.00
55916;BME280;41826;53.246;-6.670;2023-03-12T08:38:41;100080.41;;;7.90;100.00
55916;BME280;41826;53.246;-6.670;2023-03-12T08:41:07;100068.44;;;7.97;100.00
55916;BME280;41826;53.246;-6.670;2023-03-12T08:43:32;100066.63;;;8.07;100.00
55916;BME280;41826;53.246;-6.670;2023-03-12T08:46:00;100049.88;;;8.28;100.00
55916;BME280;41826;53.246;-6.670;2023-03-12T08:48:27;100034.88;;;8.39;100.00
55916;BME280;41826;53.246;-6.670;2023-03-12T08:50:58;100029.50;;;8.41;100.00
55916;BME280;41826;53.246;-6.670;2023-03-12T08:53:25;100044.31;;;8.50;100.00
55916;BME280;41826;53.246;-6.670;2023-03-12T08:55:52;100048.97;;;8.56;100.00
55916;BME280;41826;53.246;-6.670;2023-03-12T08:58:18;100054.28;;;8.64;100.00
55916;BME280;41826;53.246;-6.670;2023-03-12T09:00:44;100061.88;;;8.58;100.00
55916;BME280;41826;53.246;-6.670;2023-03-12T09:03:09;100061.38;;;8.54;100.00
55916;BME280;41826;53.246;-6.670;2023-03-12T09:05:38;100077.19;;;8.53;100.00
55916;BME280;41826;53.246;-6.670;2023-03-12T09:08:03;100079.97;;;8.51;100.00
55916;BME280;41826;53.246;-6.670;2023-03-12T09:10:29;100082.94;;;8.66;100.00
55916;BME280;41826;53.246;-6.670;2023-03-12T09:12:54;100078.59;;;8.75;100.00
55916;BME280;41826;53.246;-6.670;2023-03-12T09:15:19;100087.56;;;8.72;100.00
55916;BME280;41826;53.246;-6.670;2023-03-12T09:17:45;100095.28;;;8.74;100.00
55916;BME280;41826;53.246;-6.670;2023-03-12T09:20:12;100095.03;;;8.67;100.00
55916;BME280;41826;53.246;-6.670;2023-03-12T09:22:41;100097.44;;;8.78;100.00
55916;BME280;41826;53.246;-6.670;2023-03-12T09:25:09;100091.81;;;8.73;100.00
55916;BME280;41826;53.246;-6.670;2023-03-12T09:27:45;100093.31;;;8.76;100.00
55916;BME280;41826;53.246;-6.670;2023-03-12T09:30:13;100086.88;;;8.70;100.00
55916;BME280;41826;53.246;-6.670;2023-03-12T09:32:39;100072.69;;;8.73;100.00
55916;BME280;41826;53.246;-6.670;2023-03-12T09:35:06;100075.00;;;8.76;100.00
55916;BME280;41826;53.246;-6.670;2023-03-12T09:37:32;100068.22;;;8.83;100.00
55916;BME280;41826;53.246;-6.670;2023-03-12T09:39:58;100050.81;;;8.92;100.00
55916;BME280;41826;53.246;-6.670;2023-03-12T09:42:29;100035.63;;;8.95;100.00
55916;BME280;41826;53.246;-6.670;2023-03-12T09:45:01;100033.38;;;9.18;100.00
55916;BME280;41826;53.246;-6.670;2023-03-12T09:47:33;100029.19;;;9.25;100.00
55916;BME280;41826;53.246;-6.670;2023-03-12T09:50:05;100044.19;;;9.41;100.00
55916;BME280;41826;53.246;-6.670;2023-03-12T09:52:41;100054.81;;;9.58;100.00
55916;BME280;41826;53.246;-6.670;2023-03-12T09:55:14;100059.31;;;9.47;100.00
55916;BME280;41826;53.246;-6.670;2023-03-12T09:57:41;100067.25;;;9.55;100.00
55916;BME280;41826;53.246;-6.670;2023-03-12T10:00:13;100071.50;;;9.57;100.00
55916;BME280;41826;53.246;-6.670;2023-03-12T10:05:08;100092.59;;;9.73;100.00
55916;BME280;41826;53.246;-6.670;2023-03-12T10:07:42;100097.63;;;9.66;100.00
55916;BME280;41826;53.246;-6.670;2023-03-12T10:13:14;100106.47;;;9.91;100.00
55916;BME280;41826;53.246;-6.670;2023-03-12T10:25:29;100129.44;;;10.41;100.00
55916;BME280;41826;53.246;-6.670;2023-03-12T10:27:54;100133.19;;;10.39;100.00
55916;BME280;41826;53.246;-6.670;2023-03-12T10:30:25;100131.06;;;10.43;100.00
55916;BME280;41826;53.246;-6.670;2023-03-12T10:33:05;100132.13;;;10.58;100.00
55916;BME280;41826;53.246;-6.670;2023-03-12T10:35:36;100126.03;;;10.49;100.00
55916;BME280;41826;53.246;-6.670;2023-03-12T10:38:04;100126.94;;;10.66;100.00
55916;BME280;41826;53.246;-6.670;2023-03-12T10:40:34;100126.44;;;10.71;100.00
55916;BME280;41826;53.246;-6.670;2023-03-12T10:43:01;100126.06;;;10.57;100.00
55916;BME280;41826;53.246;-6.670;2023-03-12T10:47:59;100128.44;;;10.77;100.00
55916;BME280;41826;53.246;-6.670;2023-03-12T10:50:31;100125.91;;;10.59;100.00
55916;BME280;41826;53.246;-6.670;2023-03-12T10:56:03;100112.81;;;10.67;100.00
55916;BME280;41826;53.246;-6.670;2023-03-12T10:58:37;100115.91;;;10.62;100.00
55916;BME280;41826;53.246;-6.670;2023-03-12T11:01:05;100116.09;;;10.69;100.00
55916;BME280;41826;53.246;-6.670;2023-03-12T11:03:31;100114.75;;;10.65;100.00
55916;BME280;41826;53.246;-6.670;2023-03-12T11:06:02;100106.41;;;10.61;100.00
55916;BME280;41826;53.246;-6.670;2023-03-12T11:08:31;100098.25;;;10.81;100.00
55916;BME280;41826;53.246;-6.670;2023-03-12T11:10:59;100110.06;;;10.85;100.00
55916;BME280;41826;53.246;-6.670;2023-03-12T11:13:30;100103.34;;;10.82;100.00
55916;BME280;41826;53.246;-6.670;2023-03-12T11:15:59;100109.72;;;10.72;100.00
55916;BME280;41826;53.246;-6.670;2023-03-12T11:18:31;100100.72;;;10.91;100.00
55916;BME280;41826;53.246;-6.670;2023-03-12T11:21:18;100090.56;;;10.88;100.00
55916;BME280;41826;53.246;-6.670;2023-03-12T11:24:04;100085.97;;;10.81;100.00
55916;BME280;41826;53.246;-6.670;2023-03-12T11:29:24;100087.94;;;10.88;100.00
55916;BME280;41826;53.246;-6.670;2023-03-12T11:32:01;100090.91;;;10.93;100.00
55916;BME280;41826;53.246;-6.670;2023-03-12T11:34:30;100084.50;;;10.87;100.00
55916;BME280;41826;53.246;-6.670;2023-03-12T11:45:32;100051.50;;;10.93;100.00
55916;BME280;41826;53.246;-6.670;2023-03-12T11:48:12;100050.22;;;11.13;100.00
55916;BME280;41826;53.246;-6.670;2023-03-12T11:53:30;100016.41;;;11.18;100.00
55916;BME280;41826;53.246;-6.670;2023-03-12T11:56:16;100024.47;;;11.17;100.00
55916;BME280;41826;53.246;-6.670;2023-03-12T11:59:13;99991.94;;;11.26;100.00
55916;BME280;41826;53.246;-6.670;2023-03-12T12:10:21;99979.63;;;11.35;100.00
55916;BME280;41826;53.246;-6.670;2023-03-12T12:27:14;99929.16;;;11.39;100.00
55916;BME280;41826;53.246;-6.670;2023-03-12T12:29:48;99924.41;;;11.43;100.00
55916;BME280;41826;53.246;-6.670;2023-03-12T12:35:34;99912.09;;;11.43;100.00
55916;BME280;41826;53.246;-6.670;2023-03-12T12:40:36;99895.84;;;11.40;100.00
55916;BME280;41826;53.246;-6.670;2023-03-12T12:45:30;99899.78;;;11.36;100.00
55916;BME280;41826;53.246;-6.670;2023-03-12T12:48:02;99888.78;;;11.40;100.00
55916;BME280;41826;53.246;-6.670;2023-03-12T12:50:35;99879.41;;;11.38;100.00
55916;BME280;41826;53.246;-6.670;2023-03-12T12:53:12;99884.69;;;11.38;100.00
55916;BME280;41826;53.246;-6.670;2023-03-12T12:55:45;99875.59;;;11.48;100.00
55916;BME280;41826;53.246;-6.670;2023-03-12T12:58:20;99866.19;;;11.62;100.00
55916;BME280;41826;53.246;-6.670;2023-03-12T13:00:55;99869.00;;;11.61;100.00
55916;BME280;41826;53.246;-6.670;2023-03-12T13:03:23;99854.84;;;11.62;100.00
55916;BME280;41826;53.246;-6.670;2023-03-12T13:06:01;99847.44;;;11.65;100.00
55916;BME280;41826;53.246;-6.670;2023-03-12T13:13:42;99819.91;;;11.53;100.00
55916;BME280;41826;53.246;-6.670;2023-03-12T13:19:06;99795.22;;;11.62;100.00
55916;BME280;41826;53.246;-6.670;2023-03-12T13:24:22;99762.72;;;11.55;100.00
55916;BME280;41826;53.246;-6.670;2023-03-12T13:29:38;99739.19;;;11.62;100.00
55916;BME280;41826;53.246;-6.670;2023-03-12T13:32:09;99732.88;;;11.48;100.00
55916;BME280;41826;53.246;-6.670;2023-03-12T13:34:43;99731.28;;;11.62;100.00
55916;BME280;41826;53.246;-6.670;2023-03-12T13:37:27;99732.00;;;11.56;100.00
55916;BME280;41826;53.246;-6.670;2023-03-12T13:39:53;99734.97;;;11.53;100.00
55916;BME280;41826;53.246;-6.670;2023-03-12T13:44:47;99704.00;;;11.40;100.00
55916;BME280;41826;53.246;-6.670;2023-03-12T13:47:22;99698.84;;;11.46;100.00
55916;BME280;41826;53.246;-6.670;2023-03-12T13:52:20;99690.50;;;11.43;100.00
55916;BME280;41826;53.246;-6.670;2023-03-12T13:54:56;99667.44;;;11.53;100.00
55916;BME280;41826;53.246;-6.670;2023-03-12T13:59:58;99641.88;;;11.47;100.00
55916;BME280;41826;53.246;-6.670;2023-03-12T14:02:28;99646.34;;;11.61;100.00
55916;BME280;41826;53.246;-6.670;2023-03-12T14:05:03;99643.44;;;11.56;100.00
55916;BME280;41826;53.246;-6.670;2023-03-12T14:07:34;99637.59;;;11.46;100.00
55916;BME280;41826;53.246;-6.670;2023-03-12T14:16:08;99625.63;;;11.66;100.00